Time;durP1;ratioP1;P1;durP2;ratioP2;P2;SDS_P1;SDS_P2;PMS_P1;PMS_P2;Temp;Humidity;BMP_temperature;BMP_pressure;BME280_temperature;BME280_humidity;BME280_pressure;Samples;Min_cycle;Max_cycle;Signal;HPM_P1;HPM_P2
2021/06/25 00:01:54;;;;;;;7.32;3.58;;;;;;;;;;6197301;23;20666;-89
2021/06/25 00:05:00;;;;;;;8.05;3.20;;;;;;;;;;6197603;23;20595;-89
2021/06/25 00:08:05;;;;;;;5.15;3.00;;;;;;;;;;6197448;23;20287;-89
2021/06/25 00:11:10;;;;;;;5.50;2.90;;;;;;;;;;6197038;23;20501;-88
2021/06/25 00:14:20;;;;;;;7.45;2.88;;;;;;;;;;6197130;23;20164;-88
2021/06/25 00:17:25;;;;;;;5.25;3.13;;;;;;;;;;6196732;23;20167;-87
2021/06/25 00:20:32;;;;;;;6.55;2.88;;;;;;;;;;6196823;23;20191;-90
2021/06/25 00:23:38;;;;;;;6.43;2.65;;;;;;;;;;6196370;23;20254;-89
2021/06/25 00:26:43;;;;;;;8.45;2.53;;;;;;;;;;6197979;23;20219;-91
2021/06/25 00:29:48;;;;;;;4.60;2.17;;;;;;;;;;6198875;23;20160;-88
2021/06/25 00:32:54;;;;;;;4.03;2.63;;;;;;;;;;6197334;23;20228;-90
2021/06/25 00:36:00;;;;;;;4.85;2.78;;;;;;;;;;6198636;23;20171;-88
2021/06/25 00:39:05;;;;;;;4.00;2.67;;;;;;;;;;6196094;23;20203;-91
2021/06/25 00:42:10;;;;;;;5.40;2.80;;;;;;;;;;6196534;23;20152;-89
2021/06/25 00:45:16;;;;;;;4.68;2.80;;;;;;;;;;6199012;23;20175;-89
2021/06/25 00:48:21;;;;;;;8.20;2.60;;;;;;;;;;6197890;23;20238;-89
2021/06/25 00:51:28;;;;;;;9.02;3.15;;;;;;;;;;6197534;23;20171;-89
2021/06/25 00:54:33;;;;;;;6.22;2.88;;;;;;;;;;6197846;23;20215;-90
2021/06/25 00:57:38;;;;;;;5.07;2.50;;;;;;;;;;6197697;23;20163;-88
2021/06/25 01:00:44;;;;;;;7.20;2.50;;;;;;;;;;6203972;23;20262;-89
2021/06/25 01:03:49;;;;;;;5.10;2.63;;;;;;;;;;6211150;23;20194;-90
2021/06/25 01:06:55;;;;;;;8.15;2.30;;;;;;;;;;6210353;23;20167;-89
2021/06/25 01:10:00;;;;;;;3.47;2.38;;;;;;;;;;6211117;23;20206;-89
2021/06/25 01:13:06;;;;;;;4.47;2.88;;;;;;;;;;6209997;23;20170;-90
2021/06/25 01:16:11;;;;;;;6.68;2.53;;;;;;;;;;6209989;23;20214;-89
2021/06/25 01:19:16;;;;;;;4.85;2.15;;;;;;;;;;6208868;23;20186;-88
2021/06/25 01:22:25;;;;;;;5.20;2.20;;;;;;;;;;6209942;23;20172;-88
2021/06/25 01:25:32;;;;;;;6.00;2.42;;;;;;;;;;6211730;23;20164;-88
2021/06/25 01:28:37;;;;;;;10.73;2.30;;;;;;;;;;6211481;23;20171;-89
2021/06/25 01:31:42;;;;;;;7.28;2.30;;;;;;;;;;6212107;23;20166;-90
2021/06/25 01:34:47;;;;;;;5.35;2.42;;;;;;;;;;6230154;23;20215;-88
2021/06/25 01:37:54;;;;;;;8.73;2.20;;;;;;;;;;6209865;23;20179;-89
2021/06/25 01:41:00;;;;;;;2.25;1.50;;;;;;;;;;6209950;23;20191;-89
2021/06/25 01:44:05;;;;;;;3.30;2.00;;;;;;;;;;6212559;23;20166;-90
2021/06/25 01:47:10;;;;;;;3.53;1.38;;;;;;;;;;6210728;23;20238;-90
2021/06/25 01:50:16;;;;;;;1.95;1.40;;;;;;;;;;6211631;22;20151;-90
2021/06/25 01:53:24;;;;;;;3.67;1.30;;;;;;;;;;6211481;23;20215;-90
2021/06/25 01:56:29;;;;;;;2.28;1.20;;;;;;;;;;6210776;23;20171;-89
2021/06/25 01:59:34;;;;;;;3.22;1.30;;;;;;;;;;6210712;23;20254;-89
2021/06/25 02:02:39;;;;;;;2.45;1.20;;;;;;;;;;6211455;22;20186;-90
2021/06/25 02:05:44;;;;;;;3.97;1.42;;;;;;;;;;6211780;23;20162;-88
2021/06/25 02:08:50;;;;;;;4.57;1.30;;;;;;;;;;6211550;23;20163;-90
2021/06/25 02:11:57;;;;;;;4.38;1.42;;;;;;;;;;6213822;22;20171;-89
2021/06/25 02:15:02;;;;;;;4.40;1.23;;;;;;;;;;6209507;23;20171;-89
2021/06/25 02:18:07;;;;;;;1.65;1.05;;;;;;;;;;6209472;23;20179;-90
2021/06/25 02:21:12;;;;;;;4.55;1.55;;;;;;;;;;6211746;23;20645;-91
2021/06/25 02:24:18;;;;;;;7.53;1.25;;;;;;;;;;6209686;23;20240;-89
2021/06/25 02:27:23;;;;;;;3.42;1.20;;;;;;;;;;6208748;23;20653;-90
2021/06/25 02:30:28;;;;;;;4.35;1.55;;;;;;;;;;6210904;23;20163;-90
2021/06/25 02:33:33;;;;;;;3.85;1.30;;;;;;;;;;6209689;22;20190;-89
2021/06/25 02:36:39;;;;;;;2.88;1.20;;;;;;;;;;6209960;23;20165;-89
2021/06/25 02:39:46;;;;;;;4.80;1.77;;;;;;;;;;6209854;23;20244;-89
2021/06/25 02:42:51;;;;;;;5.00;1.30;;;;;;;;;;6209867;23;20163;-90
2021/06/25 02:45:56;;;;;;;3.38;1.40;;;;;;;;;;6210575;23;20163;-90
2021/06/25 02:49:01;;;;;;;1.42;1.10;;;;;;;;;;6209250;23;20171;-89
2021/06/25 02:52:06;;;;;;;2.05;1.10;;;;;;;;;;6210254;23;20202;-88
2021/06/25 02:55:14;;;;;;;3.97;1.38;;;;;;;;;;6210550;23;20685;-89
2021/06/25 02:58:19;;;;;;;1.88;1.23;;;;;;;;;;6210659;23;20250;-88
2021/06/25 03:01:24;;;;;;;2.78;1.15;;;;;;;;;;6210839;23;20211;-90
2021/06/25 03:04:29;;;;;;;1.52;1.10;;;;;;;;;;6210504;23;20215;-89
2021/06/25 03:07:34;;;;;;;1.83;1.30;;;;;;;;;;6209883;23;20254;-89
2021/06/25 03:10:40;;;;;;;2.22;1.20;;;;;;;;;;6209863;23;20150;-86
2021/06/25 03:13:45;;;;;;;4.88;1.23;;;;;;;;;;6210749;23;20167;-89
2021/06/25 03:16:50;;;;;;;1.35;0.80;;;;;;;;;;6209368;23;20218;-89
2021/06/25 03:19:57;;;;;;;2.85;1.15;;;;;;;;;;6209043;23;20259;-90
2021/06/25 03:23:03;;;;;;;3.20;1.00;;;;;;;;;;6209072;23;20172;-89
2021/06/25 03:26:10;;;;;;;2.45;1.02;;;;;;;;;;6209488;23;20159;-89
2021/06/25 03:29:14;;;;;;;2.25;1.08;;;;;;;;;;6209705;23;20155;-90
2021/06/25 03:32:19;;;;;;;3.45;1.30;;;;;;;;;;6211176;23;20175;-89
2021/06/25 03:35:24;;;;;;;2.47;1.30;;;;;;;;;;6209058;23;20175;-90
2021/06/25 03:38:32;;;;;;;3.97;2.05;;;;;;;;;;6210301;23;20226;-90
2021/06/25 03:41:38;;;;;;;3.13;1.10;;;;;;;;;;6209429;23;20190;-89
2021/06/25 03:44:43;;;;;;;3.28;0.90;;;;;;;;;;6210444;23;20167;-91
2021/06/25 03:47:48;;;;;;;5.13;1.52;;;;;;;;;;6208144;23;20226;-91
2021/06/25 03:50:53;;;;;;;1.48;0.95;;;;;;;;;;6211027;23;20417;-90
2021/06/25 03:53:58;;;;;;;1.63;1.00;;;;;;;;;;6209596;23;20168;-90
2021/06/25 03:57:05;;;;;;;2.53;0.93;;;;;;;;;;6208025;23;20612;-89
2021/06/25 04:00:11;;;;;;;4.88;1.20;;;;;;;;;;6208105;23;20190;-90
2021/06/25 04:03:21;;;;;;;3.33;1.15;;;;;;;;;;6208194;23;20252;-89
2021/06/25 04:06:26;;;;;;;2.08;1.02;;;;;;;;;;6210296;23;20151;-90
2021/06/25 04:09:31;;;;;;;1.75;1.10;;;;;;;;;;6210761;23;20171;-89
2021/06/25 04:12:38;;;;;;;2.75;1.10;;;;;;;;;;6211614;23;20622;-90
2021/06/25 04:15:43;;;;;;;3.35;1.00;;;;;;;;;;6229089;23;20612;-90
2021/06/25 04:18:48;;;;;;;3.20;1.10;;;;;;;;;;6211418;23;20179;-90
2021/06/25 04:21:54;;;;;;;3.30;1.33;;;;;;;;;;6211008;23;20202;-90
2021/06/25 04:24:59;;;;;;;2.65;1.30;;;;;;;;;;6214525;23;20198;-88
2021/06/25 04:28:06;;;;;;;4.50;1.92;;;;;;;;;;6207529;23;20234;-91
2021/06/25 04:31:11;;;;;;;5.18;1.85;;;;;;;;;;6208063;23;20179;-90
2021/06/25 04:34:16;;;;;;;5.53;1.50;;;;;;;;;;6207658;23;20167;-91
2021/06/25 04:37:21;;;;;;;4.70;1.60;;;;;;;;;;6208824;22;20813;-90
2021/06/25 04:40:26;;;;;;;4.43;1.48;;;;;;;;;;6208717;23;20191;-91
2021/06/25 04:43:32;;;;;;;2.42;1.60;;;;;;;;;;6210901;23;20218;-91
2021/06/25 04:46:38;;;;;;;5.20;1.60;;;;;;;;;;6209677;23;20220;-90
2021/06/25 04:49:43;;;;;;;3.13;1.60;;;;;;;;;;6209536;23;20194;-91
2021/06/25 04:52:48;;;;;;;4.60;1.83;;;;;;;;;;6210166;23;20167;-89
2021/06/25 04:55:53;;;;;;;2.65;1.60;;;;;;;;;;6207335;23;20167;-88
2021/06/25 04:58:59;;;;;;;12.02;6.65;;;;;;;;;;6207606;23;20170;-89
2021/06/25 05:02:06;;;;;;;3.10;1.80;;;;;;;;;;6206977;23;20218;-89
2021/06/25 05:05:11;;;;;;;5.22;1.42;;;;;;;;;;6206309;22;20163;-89
2021/06/25 05:08:17;;;;;;;3.75;1.33;;;;;;;;;;6207738;23;20167;-90
2021/06/25 05:11:22;;;;;;;2.22;1.20;;;;;;;;;;6207281;23;20211;-89
2021/06/25 05:14:30;;;;;;;3.17;1.23;;;;;;;;;;6209479;23;20166;-90
2021/06/25 05:17:35;;;;;;;5.18;1.10;;;;;;;;;;6209380;23;20233;-89
2021/06/25 05:20:40;;;;;;;1.90;1.20;;;;;;;;;;6208492;23;20219;-88
2021/06/25 05:23:46;;;;;;;2.55;1.00;;;;;;;;;;6205973;23;20642;-88
2021/06/25 05:26:51;;;;;;;1.50;1.10;;;;;;;;;;6205574;23;20233;-90
2021/06/25 05:29:57;;;;;;;4.97;1.10;;;;;;;;;;6208583;22;20514;-89
2021/06/25 05:33:04;;;;;;;2.13;1.13;;;;;;;;;;6208119;23;20171;-90
2021/06/25 05:36:10;;;;;;;16.00;1.20;;;;;;;;;;6207512;23;20266;-86
2021/06/25 05:39:15;;;;;;;3.90;1.13;;;;;;;;;;6206587;23;20170;-90
2021/06/25 05:42:21;;;;;;;1.27;0.80;;;;;;;;;;6210262;23;20171;-88
2021/06/25 05:45:28;;;;;;;3.88;1.20;;;;;;;;;;6209100;23;20170;-88
2021/06/25 05:48:33;;;;;;;5.72;1.30;;;;;;;;;;6209657;23;20222;-88
2021/06/25 05:51:38;;;;;;;2.08;1.00;;;;;;;;;;6212030;22;20210;-90
2021/06/25 05:54:44;;;;;;;2.55;1.02;;;;;;;;;;6210265;23;20170;-92
2021/06/25 05:57:50;;;;;;;2.15;0.90;;;;;;;;;;6210223;22;20172;-91
2021/06/25 06:00:57;;;;;;;8.65;1.63;;;;;;;;;;6209232;23;20211;-92
2021/06/25 06:04:02;;;;;;;4.43;2.17;;;;;;;;;;6210286;22;20168;-91
2021/06/25 06:07:10;;;;;;;2.97;0.90;;;;;;;;;;6212868;23;20179;-90
2021/06/25 06:10:24;;;;;;;5.03;1.55;;;;;;;;;;6211615;23;20175;-90
2021/06/25 06:13:29;;;;;;;3.38;0.93;;;;;;;;;;6213333;23;20212;-88
2021/06/25 06:16:38;;;;;;;3.63;1.33;;;;;;;;;;6211714;22;20218;-89
2021/06/25 06:19:47;;;;;;;4.30;1.50;;;;;;;;;;6215388;22;20176;-89
2021/06/25 06:33:05;;;;;;;4.90;1.08;;;;;;;;;;6212591;22;20195;-90
2021/06/25 06:36:21;;;;;;;2.85;1.40;;;;;;;;;;6210364;23;20167;-92
2021/06/25 06:39:28;;;;;;;4.28;1.25;;;;;;;;;;6213154;23;20151;-90
2021/06/25 06:42:33;;;;;;;1.90;1.30;;;;;;;;;;6211327;23;20218;-90
2021/06/25 06:45:38;;;;;;;3.75;1.40;;;;;;;;;;6212969;23;20175;-90
2021/06/25 06:48:47;;;;;;;6.00;1.30;;;;;;;;;;6212783;23;20212;-91
2021/06/25 06:51:52;;;;;;;4.10;1.25;;;;;;;;;;6212327;23;20167;-89
2021/06/25 06:54:58;;;;;;;5.35;1.40;;;;;;;;;;6214560;22;20166;-90
2021/06/25 06:58:03;;;;;;;1.75;1.00;;;;;;;;;;6212699;23;20171;-90
2021/06/25 07:01:08;;;;;;;3.78;1.10;;;;;;;;;;6212933;23;20207;-90
2021/06/25 07:04:17;;;;;;;1.50;1.10;;;;;;;;;;6215768;23;20158;-91
2021/06/25 07:07:21;;;;;;;2.10;1.10;;;;;;;;;;6215249;23;20214;-92
2021/06/25 07:10:27;;;;;;;6.68;1.10;;;;;;;;;;6213500;23;20171;-91
2021/06/25 07:13:33;;;;;;;1.40;0.93;;;;;;;;;;6215429;22;20171;-90
2021/06/25 07:16:38;;;;;;;1.83;1.05;;;;;;;;;;6213007;23;20167;-89
2021/06/25 07:19:46;;;;;;;1.45;1.17;;;;;;;;;;6212492;23;20167;-88
2021/06/25 07:22:52;;;;;;;1.52;1.15;;;;;;;;;;6210669;23;20171;-90
2021/06/25 07:25:57;;;;;;;1.83;1.17;;;;;;;;;;6210054;23;20175;-90
2021/06/25 07:29:02;;;;;;;2.63;1.40;;;;;;;;;;6211171;23;20163;-91
2021/06/25 07:32:07;;;;;;;2.17;1.23;;;;;;;;;;6216313;22;20163;-90
2021/06/25 07:35:15;;;;;;;2.45;0.93;;;;;;;;;;6221781;23;20159;-90
2021/06/25 07:38:20;;;;;;;5.22;2.38;;;;;;;;;;6217427;23;20166;-91
2021/06/25 07:41:25;;;;;;;3.58;1.20;;;;;;;;;;6217360;23;20197;-89
2021/06/25 07:44:30;;;;;;;1.75;1.10;;;;;;;;;;6213447;23;20167;-90
2021/06/25 07:47:37;;;;;;;1.63;1.10;;;;;;;;;;6214977;23;20622;-90
2021/06/25 07:50:43;;;;;;;1.90;1.30;;;;;;;;;;6214346;23;20160;-90
2021/06/25 07:53:48;;;;;;;1.35;1.20;;;;;;;;;;6215378;23;20167;-91
2021/06/25 07:56:53;;;;;;;1.73;1.27;;;;;;;;;;6213823;23;20170;-91
2021/06/25 07:59:58;;;;;;;3.40;1.10;;;;;;;;;;6230568;22;20166;-91
2021/06/25 08:03:03;;;;;;;1.58;1.08;;;;;;;;;;6186926;23;20172;-89
2021/06/25 08:51:37;;;;;;;1.63;1.00;;;;;;;;;;6171158;23;20201;-91
2021/06/25 08:54:43;;;;;;;2.17;1.10;;;;;;;;;;6154500;23;20216;-92
2021/06/25 08:57:50;;;;;;;1.48;1.20;;;;;;;;;;6158973;23;20180;-91
2021/06/25 14:32:25;;;;;;;6.93;3.55;;;;;;;;;;6173449;23;20189;-92
2021/06/25 14:35:30;;;;;;;5.40;1.00;;;;;;;;;;6156275;23;20242;-92
2021/06/25 14:38:35;;;;;;;5.07;1.02;;;;;;;;;;6153733;23;20167;-91
2021/06/25 14:41:41;;;;;;;1.42;0.70;;;;;;;;;;6155701;23;20184;-91
2021/06/25 14:44:46;;;;;;;4.45;0.90;;;;;;;;;;6155273;23;20208;-91
2021/06/25 14:47:53;;;;;;;1.95;0.75;;;;;;;;;;6156431;23;20672;-91
2021/06/25 14:50:59;;;;;;;0.95;0.75;;;;;;;;;;6174049;23;20193;-92
2021/06/25 14:54:05;;;;;;;3.97;0.75;;;;;;;;;;6155422;23;20224;-92
2021/06/25 14:57:10;;;;;;;1.00;0.70;;;;;;;;;;6156557;23;20181;-93
2021/06/25 15:00:16;;;;;;;6.03;1.00;;;;;;;;;;6157006;23;20180;-91
2021/06/25 15:03:26;;;;;;;2.25;1.00;;;;;;;;;;6175225;23;20173;-91
2021/06/25 15:06:32;;;;;;;3.80;1.30;;;;;;;;;;6173490;23;20167;-91
2021/06/25 15:09:37;;;;;;;1.88;1.10;;;;;;;;;;6173124;23;20247;-91
2021/06/25 15:12:42;;;;;;;1.10;0.80;;;;;;;;;;6155347;23;20160;-90
2021/06/25 15:15:48;;;;;;;1.42;0.93;;;;;;;;;;6153544;23;20271;-90
2021/06/25 15:18:55;;;;;;;4.55;0.90;;;;;;;;;;6157261;23;20604;-92
2021/06/25 15:22:00;;;;;;;1.88;0.85;;;;;;;;;;6172831;23;20200;-91
2021/06/25 15:25:07;;;;;;;8.30;5.07;;;;;;;;;;6156890;23;20204;-92
2021/06/25 15:28:12;;;;;;;3.90;1.20;;;;;;;;;;6156525;23;20269;-90
2021/06/25 15:31:17;;;;;;;1.15;0.90;;;;;;;;;;6140645;23;20189;-91
2021/06/25 15:34:24;;;;;;;1.73;0.90;;;;;;;;;;6122836;23;20168;-92
2021/06/25 15:37:30;;;;;;;2.63;0.75;;;;;;;;;;6123579;23;20165;-92
2021/06/25 19:05:40;;;;;;;2.67;1.40;;;;;;;;;;6157238;22;20195;-90
2021/06/25 19:08:46;;;;;;;4.18;1.63;;;;;;;;;;6184241;23;20236;-91
2021/06/25 19:11:51;;;;;;;2.53;1.20;;;;;;;;;;6185290;22;20219;-91
2021/06/25 19:14:56;;;;;;;1.55;1.00;;;;;;;;;;6184301;22;20615;-89
2021/06/25 19:18:01;;;;;;;1.67;1.10;;;;;;;;;;6184204;23;20164;-90
2021/06/25 19:21:08;;;;;;;1.13;0.80;;;;;;;;;;6184606;23;20235;-92
2021/06/25 19:24:14;;;;;;;2.10;1.08;;;;;;;;;;6186316;22;20239;-91
2021/06/25 19:27:20;;;;;;;3.25;1.20;;;;;;;;;;6184139;22;20228;-90
2021/06/25 19:30:26;;;;;;;1.20;1.00;;;;;;;;;;6182177;22;20163;-91
2021/06/25 19:33:31;;;;;;;3.53;1.00;;;;;;;;;;6182845;22;20159;-91
2021/06/25 19:36:38;;;;;;;1.20;0.90;;;;;;;;;;6184019;22;20156;-91
2021/06/25 19:40:10;;;;;;;3.55;1.48;;;;;;;;;;6182476;23;20176;-92
2021/06/25 19:43:16;;;;;;;4.80;2.03;;;;;;;;;;6185487;22;20195;-91
2021/06/25 19:46:21;;;;;;;4.45;1.85;;;;;;;;;;6185852;22;20176;-92
2021/06/25 19:49:26;;;;;;;2.17;1.33;;;;;;;;;;6187353;22;20489;-91
2021/06/25 19:52:35;;;;;;;6.95;1.85;;;;;;;;;;6185771;23;20172;-93
2021/06/25 19:55:47;;;;;;;22.92;12.90;;;;;;;;;;6183434;22;20172;-91
2021/06/25 19:58:52;;;;;;;7.18;2.30;;;;;;;;;;6183831;23;20172;-91
2021/06/25 20:01:59;;;;;;;4.80;1.60;;;;;;;;;;6184127;23;20180;-91
2021/06/25 20:05:04;;;;;;;2.33;1.67;;;;;;;;;;6185624;22;20242;-91
2021/06/25 20:08:11;;;;;;;3.80;1.95;;;;;;;;;;6183262;23;20168;-90
2021/06/25 20:11:16;;;;;;;6.18;3.33;;;;;;;;;;6182870;23;20207;-90
2021/06/25 20:14:22;;;;;;;11.68;6.63;;;;;;;;;;6182759;22;20192;-92
2021/06/25 20:17:27;;;;;;;5.90;2.40;;;;;;;;;;6183542;22;20164;-90
2021/06/25 20:20:33;;;;;;;4.07;2.17;;;;;;;;;;6183613;23;20168;-90
2021/06/25 20:23:40;;;;;;;5.05;2.90;;;;;;;;;;6182943;23;20219;-91
2021/06/25 20:26:45;;;;;;;4.82;2.00;;;;;;;;;;6182519;23;20225;-92
2021/06/25 20:29:50;;;;;;;4.72;1.50;;;;;;;;;;6183867;22;20639;-92
2021/06/25 20:33:01;;;;;;;2.53;1.83;;;;;;;;;;6185010;23;20164;-90
2021/06/25 20:36:07;;;;;;;6.88;1.92;;;;;;;;;;6183178;23;20167;-90
2021/06/25 20:39:14;;;;;;;4.70;1.85;;;;;;;;;;6183188;23;20608;-91
2021/06/25 20:42:21;;;;;;;4.72;1.70;;;;;;;;;;6182890;23;20188;-91
2021/06/25 20:45:26;;;;;;;4.38;1.80;;;;;;;;;;6182499;23;20164;-90
2021/06/25 20:48:32;;;;;;;4.95;2.90;;;;;;;;;;6183697;22;20199;-91
2021/06/25 20:51:37;;;;;;;4.80;2.30;;;;;;;;;;6165770;23;20523;-93
2021/06/25 20:54:44;;;;;;;6.05;2.50;;;;;;;;;;6183865;23;20196;-90
2021/06/25 20:57:49;;;;;;;6.65;3.30;;;;;;;;;;6184521;23;20167;-91
2021/06/25 21:00:55;;;;;;;4.18;2.50;;;;;;;;;;6183245;22;20622;-92
2021/06/25 21:04:01;;;;;;;6.22;1.88;;;;;;;;;;6183101;22;20261;-90
2021/06/25 22:26:26;;;;;;;7.47;2.80;;;;;;;;;;6159046;22;20291;-91
2021/06/25 22:29:33;;;;;;;6.68;2.15;;;;;;;;;;6184683;23;20314;-89
2021/06/25 22:32:40;;;;;;;5.78;2.75;;;;;;;;;;6183243;23;20551;-91
2021/06/25 22:35:45;;;;;;;4.50;2.20;;;;;;;;;;6182841;22;20215;-90
2021/06/25 22:38:50;;;;;;;7.97;1.83;;;;;;;;;;6182193;23;20159;-91
2021/06/25 22:45:20;;;;;;;5.10;2.55;;;;;;;;;;6113411;23;20174;-90
2021/06/25 22:48:25;;;;;;;4.40;2.03;;;;;;;;;;6110809;23;20249;-91
2021/06/25 22:51:31;;;;;;;7.43;3.88;;;;;;;;;;6108799;23;20174;-91
2021/06/25 22:54:35;;;;;;;11.88;3.60;;;;;;;;;;6109253;23;20223;-91
2021/06/25 22:57:41;;;;;;;3.63;1.80;;;;;;;;;;6107914;23;20174;-91
2021/06/25 23:00:48;;;;;;;2.60;1.90;;;;;;;;;;6107731;23;20154;-92
2021/06/25 23:03:53;;;;;;;4.22;1.83;;;;;;;;;;6109039;23;20181;-91
2021/06/25 23:06:59;;;;;;;6.57;2.00;;;;;;;;;;6110539;23;20173;-90
2021/06/25 23:10:04;;;;;;;4.25;1.90;;;;;;;;;;6092341;23;20245;-92
2021/06/25 23:13:09;;;;;;;3.35;1.90;;;;;;;;;;6111231;23;20177;-91
2021/06/25 23:16:15;;;;;;;5.82;1.95;;;;;;;;;;6093745;23;20166;-92
2021/06/25 23:19:21;;;;;;;5.70;2.63;;;;;;;;;;6110782;23;20215;-90
2021/06/25 23:22:25;;;;;;;6.70;2.50;;;;;;;;;;6111685;23;20174;-90
2021/06/25 23:25:30;;;;;;;3.78;2.65;;;;;;;;;;6110715;23;20516;-91
2021/06/25 23:28:36;;;;;;;15.77;2.25;;;;;;;;;;6111176;23;20174;-91
2021/06/25 23:31:42;;;;;;;6.15;2.17;;;;;;;;;;6110058;23;20222;-90
2021/06/25 23:34:47;;;;;;;4.88;2.10;;;;;;;;;;6108809;23;20214;-90
2021/06/25 23:37:52;;;;;;;4.15;1.92;;;;;;;;;;6109436;23;20170;-90
2021/06/25 23:41:00;;;;;;;3.50;2.40;;;;;;;;;;6110618;23;20150;-90
2021/06/25 23:44:05;;;;;;;3.88;2.70;;;;;;;;;;6111710;23;20294;-91
2021/06/25 23:47:12;;;;;;;5.90;2.47;;;;;;;;;;6112168;23;20689;-90
2021/06/25 23:50:17;;;;;;;5.35;2.20;;;;;;;;;;6110133;23;20286;-91
2021/06/25 23:53:22;;;;;;;3.13;2.22;;;;;;;;;;6112893;23;20150;-90
2021/06/25 23:56:28;;;;;;;4.85;2.70;;;;;;;;;;6111600;23;20153;-90
2021/06/25 23:59:33;;;;;;;4.75;2.38;;;;;;;;;;6111946;23;20154;-90
